createdAt,value
2017-11-18T00:00:43.439Z,7.14
2017-11-18T00:01:43.457Z,7.17
2017-11-18T00:02:43.570Z,7.14
2017-11-18T00:03:43.225Z,7.13
2017-11-18T00:04:43.253Z,7.07
2017-11-18T00:05:43.521Z,7.15
2017-11-18T00:06:43.017Z,7.1
2017-11-18T00:07:43.603Z,7.21
2017-11-18T00:08:43.342Z,7.2
2017-11-18T00:09:43.326Z,7.31
2017-11-18T00:10:43.616Z,7.24
2017-11-18T00:11:43.391Z,7.24
2017-11-18T00:12:43.637Z,7.31
2017-11-18T00:13:43.654Z,7.21
2017-11-18T00:14:43.663Z,7.25
2017-11-18T00:15:43.686Z,7.38
2017-11-18T00:16:43.691Z,7.18
2017-11-18T00:17:43.447Z,6.99
2017-11-18T00:18:43.464Z,6.96
2017-11-18T00:19:43.747Z,6.72
2017-11-18T00:20:43.749Z,6.79
2017-11-18T00:21:43.518Z,6.7
2017-11-18T00:22:43.841Z,6.75
2017-11-18T00:23:44.015Z,6.69
2017-11-18T00:24:43.817Z,6.75
2017-11-18T00:25:43.837Z,6.64
2017-11-18T00:26:43.588Z,6.74
2017-11-18T00:27:43.609Z,6.75
2017-11-18T00:28:43.362Z,6.67
2017-11-18T00:29:43.643Z,6.75
2017-11-18T00:30:43.650Z,6.64
2017-11-18T00:31:43.940Z,6.72
2017-11-18T00:32:43.680Z,6.72
2017-11-18T00:33:43.956Z,6.75
2017-11-18T00:34:43.970Z,6.7
2017-11-18T00:35:43.727Z,6.77
2017-11-18T00:36:43.751Z,6.89
2017-11-18T00:37:43.813Z,6.87
2017-11-18T00:38:43.775Z,6.89
2017-11-18T00:39:44.047Z,6.7
2017-11-18T00:40:44.063Z,6.78
2017-11-18T00:41:44.076Z,6.64
2017-11-18T00:42:43.859Z,6.67
2017-11-18T00:43:43.863Z,6.66
2017-11-18T00:44:44.125Z,6.6
2017-11-18T00:45:44.144Z,6.59
2017-11-18T00:46:44.169Z,6.63
2017-11-18T00:47:43.913Z,6.56
2017-11-18T00:48:43.946Z,6.66
2017-11-18T00:49:44.198Z,6.67
2017-11-18T00:50:43.963Z,6.64
2017-11-18T00:51:44.241Z,6.75
2017-11-18T00:52:44.041Z,6.78
2017-11-18T00:53:44.261Z,6.57
2017-11-18T00:54:44.286Z,6.6
2017-11-18T00:55:43.781Z,6.7
2017-11-18T00:56:44.321Z,6.7
2017-11-18T00:57:44.072Z,6.78
2017-11-18T00:58:44.100Z,6.74
2017-11-18T00:59:44.100Z,6.88
2017-11-18T01:00:44.371Z,6.72
2017-11-18T01:01:44.389Z,6.77
2017-11-18T01:02:44.403Z,6.85
2017-11-18T01:03:44.164Z,6.81
2017-11-18T01:04:44.434Z,6.77
2017-11-18T01:05:44.461Z,6.87
2017-11-18T01:06:44.216Z,6.67
2017-11-18T01:07:44.275Z,6.74
2017-11-18T01:08:44.523Z,6.66
2017-11-18T01:09:44.256Z,6.54
2017-11-18T01:10:44.550Z,6.51
2017-11-18T01:11:44.546Z,6.42
2017-11-18T01:12:44.558Z,6.28
2017-11-18T01:13:44.574Z,6.36
2017-11-18T01:14:44.590Z,6.52
2017-11-18T01:15:44.605Z,6.51
2017-11-18T01:16:44.376Z,6.57
2017-11-18T01:17:44.638Z,6.59
2017-11-18T01:18:44.649Z,6.51
2017-11-18T01:19:44.411Z,6.56
2017-11-18T01:20:44.423Z,6.59
2017-11-18T01:21:44.713Z,6.51
2017-11-18T01:22:44.816Z,6.31
2017-11-18T01:23:44.733Z,6.46
2017-11-18T01:24:44.230Z,6.38
2017-11-18T01:25:44.765Z,6.35
2017-11-18T01:26:44.771Z,6.35
2017-11-18T01:27:44.533Z,6.48
2017-11-18T01:28:44.576Z,6.41
2017-11-18T01:29:44.818Z,6.49
2017-11-18T01:30:44.841Z,6.6
2017-11-18T01:31:44.872Z,6.66
2017-11-18T01:32:44.623Z,6.62
2017-11-18T01:33:44.889Z,6.67
2017-11-18T01:34:44.640Z,6.69
2017-11-18T01:35:44.397Z,6.74
2017-11-18T01:36:44.679Z,6.66
2017-11-18T01:37:44.733Z,6.7
2017-11-18T01:38:44.720Z,6.92
2017-11-18T01:39:44.982Z,6.82
2017-11-18T01:40:44.992Z,6.87
2017-11-18T01:41:45.004Z,7.02
2017-11-18T01:42:45.020Z,6.89
2017-11-18T01:43:44.780Z,6.77
2017-11-18T01:44:45.056Z,6.79
2017-11-18T01:45:45.072Z,6.92
2017-11-18T01:46:45.088Z,6.89
2017-11-18T01:47:45.102Z,6.97
2017-11-18T01:48:44.857Z,6.88
2017-11-18T01:49:45.145Z,6.85
2017-11-18T01:50:44.899Z,6.93
2017-11-18T01:51:45.171Z,6.75
2017-11-18T01:52:44.919Z,6.77
2017-11-18T01:53:45.203Z,6.88
2017-11-18T01:54:45.210Z,6.79
2017-11-18T01:55:45.224Z,6.87
2017-11-18T01:56:45.034Z,6.88
2017-11-18T01:57:44.738Z,6.89
2017-11-18T01:58:45.264Z,6.97
2017-11-18T01:59:45.025Z,6.95
2017-11-18T02:00:45.301Z,6.85
2017-11-18T02:01:45.064Z,6.93
2017-11-18T02:02:45.076Z,6.88
2017-11-18T02:03:45.353Z,6.88
2017-11-18T02:04:45.372Z,6.89
2017-11-18T02:05:45.120Z,6.81
2017-11-18T02:06:45.392Z,6.78
2017-11-18T02:07:45.513Z,6.78
2017-11-18T02:08:45.431Z,6.75
2017-11-18T02:09:45.185Z,6.66
2017-11-18T02:10:45.454Z,6.67
2017-11-18T02:11:45.532Z,6.74
2017-11-18T02:12:45.483Z,6.75
2017-11-18T02:13:45.496Z,6.72
2017-11-18T02:14:45.512Z,6.77
2017-11-18T02:15:45.545Z,6.78
2017-11-18T02:16:45.291Z,6.69
2017-11-18T02:17:45.561Z,6.77
2017-11-18T02:18:45.588Z,6.75
2017-11-18T02:19:45.342Z,6.67
2017-11-18T02:20:45.346Z,6.69
2017-11-18T02:21:45.365Z,6.45
2017-11-18T02:22:45.642Z,6.49
2017-11-18T02:23:45.680Z,6.59
2017-11-18T02:24:45.678Z,6.54
2017-11-18T02:25:45.427Z,6.67
2017-11-18T02:26:45.725Z,6.72
2017-11-18T02:27:45.507Z,6.67
2017-11-18T02:28:45.746Z,6.67
2017-11-18T02:29:45.780Z,6.72
2017-11-18T02:30:45.790Z,6.67
2017-11-18T02:31:45.533Z,6.74
2017-11-18T02:32:45.820Z,6.54
2017-11-18T02:33:45.593Z,6.6
2017-11-18T02:34:45.833Z,6.57
2017-11-18T02:35:45.852Z,6.63
2017-11-18T02:36:45.599Z,6.69
2017-11-18T02:37:45.889Z,6.66
2017-11-18T02:38:45.893Z,6.75
2017-11-18T02:39:45.648Z,6.75
2017-11-18T02:40:45.656Z,6.54
2017-11-18T02:41:45.692Z,6.54
2017-11-18T02:42:45.950Z,6.52
2017-11-18T02:43:45.968Z,6.6
2017-11-18T02:44:45.717Z,6.46
2017-11-18T02:45:46.041Z,6.52
2017-11-18T02:46:46.030Z,6.56
2017-11-18T02:47:46.017Z,6.44
2017-11-18T02:48:45.781Z,6.52
2017-11-18T02:49:45.795Z,6.48
2017-11-18T02:50:45.545Z,6.39
2017-11-18T02:51:46.079Z,6.49
2017-11-18T02:52:46.115Z,6.46
2017-11-18T02:53:45.595Z,6.49
2017-11-18T02:54:46.139Z,6.59
2017-11-18T02:55:45.883Z,6.54
2017-11-18T02:56:46.168Z,6.54
2017-11-18T02:57:46.170Z,6.56
2017-11-18T02:58:46.188Z,6.51
2017-11-18T02:59:46.199Z,6.6
2017-11-18T03:00:46.215Z,6.57
2017-11-18T03:01:45.974Z,6.46
2017-11-18T03:02:46.260Z,6.41
2017-11-18T03:03:46.257Z,6.35
2017-11-18T03:04:46.027Z,6.41
2017-11-18T03:05:46.292Z,6.41
2017-11-18T03:06:46.311Z,6.52
2017-11-18T03:07:46.066Z,6.54
2017-11-18T03:08:46.351Z,6.44
2017-11-18T03:09:46.350Z,6.42
2017-11-18T03:10:46.366Z,6.44
2017-11-18T03:11:46.125Z,6.45
2017-11-18T03:12:46.455Z,6.48
2017-11-18T03:13:46.152Z,6.52
2017-11-18T03:14:46.543Z,6.54
2017-11-18T03:15:46.440Z,6.48
2017-11-18T03:16:46.454Z,6.52
2017-11-18T03:17:46.471Z,6.41
2017-11-18T03:18:46.486Z,6.52
2017-11-18T03:19:46.555Z,6.48
2017-11-18T03:20:46.264Z,6.49
2017-11-18T03:21:46.016Z,6.49
2017-11-18T03:22:46.561Z,6.48
2017-11-18T03:23:46.562Z,6.46
2017-11-18T03:24:46.576Z,6.52
2017-11-18T03:25:46.341Z,6.57
2017-11-18T03:26:46.612Z,6.57
2017-11-18T03:27:46.623Z,6.59
2017-11-18T03:28:46.120Z,6.66
2017-11-18T03:29:46.654Z,6.57
2017-11-18T03:30:46.418Z,6.64
2017-11-18T03:31:46.691Z,6.51
2017-11-18T03:32:46.713Z,6.52
2017-11-18T03:33:46.923Z,6.66
2017-11-18T03:34:46.470Z,6.7
2017-11-18T03:35:46.746Z,6.7
2017-11-18T03:36:46.551Z,6.7
2017-11-18T03:37:46.257Z,6.72
2017-11-18T03:38:46.529Z,6.69
2017-11-18T03:39:46.815Z,6.66
2017-11-18T03:40:46.831Z,6.75
2017-11-18T03:41:46.575Z,6.7
2017-11-18T03:42:46.857Z,6.72
2017-11-18T03:43:46.864Z,6.75
2017-11-18T03:44:46.886Z,6.78
2017-11-18T03:45:46.910Z,6.7
2017-11-18T03:46:46.912Z,6.79
2017-11-18T03:47:46.668Z,6.74
2017-11-18T03:48:46.422Z,6.77
2017-11-18T03:49:46.438Z,6.69
2017-11-18T03:50:46.708Z,6.84
2017-11-18T03:51:46.726Z,6.84
2017-11-18T03:52:47.200Z,6.75
2017-11-18T03:53:47.027Z,6.56
2017-11-18T03:54:46.773Z,6.52
2017-11-18T03:55:47.084Z,6.45
2017-11-18T03:56:47.064Z,6.42
2017-11-18T03:57:46.819Z,6.2
2017-11-18T03:58:47.093Z,6.27
2017-11-18T03:59:47.107Z,6.28
2017-11-18T04:00:47.165Z,6.11
2017-11-18T04:01:47.163Z,6.01
2017-11-18T04:02:47.151Z,6.01
2017-11-18T04:03:46.910Z,6.07
2017-11-18T04:04:46.927Z,6.02
2017-11-18T04:05:46.958Z,6.04
2017-11-18T04:06:47.211Z,6.12
2017-11-18T04:07:46.978Z,6.14
2017-11-18T04:08:46.983Z,6.2
2017-11-18T04:09:47.057Z,6.24
2017-11-18T04:10:47.282Z,6.09
2017-11-18T04:11:47.030Z,6.11
2017-11-18T04:12:47.061Z,6.11
2017-11-18T04:13:47.320Z,6.11
2017-11-18T04:14:47.076Z,6.09
2017-11-18T04:15:47.346Z,6.14
2017-11-18T04:16:47.108Z,6.24
2017-11-18T04:17:47.378Z,6.26
2017-11-18T04:18:46.875Z,6.22
2017-11-18T04:19:47.147Z,6.11
2017-11-18T04:20:47.421Z,6.09
2017-11-18T04:21:47.451Z,5.93
2017-11-18T04:22:47.461Z,5.89
2017-11-18T04:23:47.209Z,5.91
2017-11-18T04:24:47.532Z,5.97
2017-11-18T04:25:47.498Z,6.09
2017-11-18T04:26:47.268Z,6.02
2017-11-18T04:27:47.580Z,5.86
2017-11-18T04:28:47.545Z,5.91
2017-11-18T04:29:47.567Z,5.91
2017-11-18T04:30:47.320Z,5.84
2017-11-18T04:31:47.583Z,5.84
2017-11-18T04:32:47.608Z,5.91
2017-11-18T04:33:47.622Z,5.87
2017-11-18T04:34:47.382Z,5.93
2017-11-18T04:35:47.645Z,6.01
2017-11-18T04:36:47.675Z,6.09
2017-11-18T04:37:47.431Z,5.82
2017-11-18T04:38:47.431Z,5.64
2017-11-18T04:39:47.758Z,5.72
2017-11-18T04:40:47.463Z,5.71
2017-11-18T04:41:47.478Z,5.66
2017-11-18T04:42:47.756Z,5.62
2017-11-18T04:43:47.514Z,5.48
2017-11-18T04:44:47.795Z,5.48
2017-11-18T04:45:47.536Z,5.65
2017-11-18T04:46:47.811Z,5.69
2017-11-18T04:47:47.824Z,5.61
2017-11-18T04:48:47.842Z,5.64
2017-11-18T04:49:47.600Z,5.71
2017-11-18T04:50:47.611Z,5.75
2017-11-18T04:51:47.883Z,5.87
2017-11-18T04:52:47.902Z,6.01
2017-11-18T04:53:47.920Z,5.99
2017-11-18T04:54:47.975Z,5.94
2017-11-18T04:55:47.946Z,5.91
2017-11-18T04:56:47.966Z,5.97
2017-11-18T04:57:47.972Z,6.05
2017-11-18T04:58:47.730Z,6.11
2017-11-18T04:59:47.742Z,5.99
2017-11-18T05:00:47.758Z,5.99
2017-11-18T05:01:47.777Z,6.04
2017-11-18T05:02:47.786Z,6.04
2017-11-18T05:03:48.084Z,6.04
2017-11-18T05:04:47.822Z,5.98
2017-11-18T05:05:48.092Z,5.9
2017-11-18T05:06:48.118Z,5.94
2017-11-18T05:07:47.605Z,5.71
2017-11-18T05:08:47.884Z,5.59
2017-11-18T05:09:47.898Z,5.57
2017-11-18T05:10:47.908Z,5.41
2017-11-18T05:11:47.926Z,5.3
2017-11-18T05:12:47.940Z,5.3
2017-11-18T05:13:47.947Z,5.26
2017-11-18T05:14:48.224Z,5.32
2017-11-18T05:15:48.239Z,5.47
2017-11-18T05:16:47.990Z,5.44
2017-11-18T05:17:48.266Z,5.41
2017-11-18T05:18:48.279Z,5.18
2017-11-18T05:19:48.297Z,5.05
2017-11-18T05:20:48.052Z,5.23
2017-11-18T05:21:48.073Z,5.29
2017-11-18T05:22:48.077Z,5.28
2017-11-18T05:23:48.376Z,5.29
2017-11-18T05:24:48.374Z,5.23
2017-11-18T05:25:48.383Z,5.23
2017-11-18T05:26:48.401Z,5.32
2017-11-18T05:27:48.456Z,5.23
2017-11-18T05:28:48.166Z,5.18
2017-11-18T05:29:48.437Z,5.18
2017-11-18T05:30:48.195Z,5.25
2017-11-18T05:31:48.218Z,5.25
2017-11-18T05:32:48.226Z,5.15
2017-11-18T05:33:48.243Z,5.3
2017-11-18T05:34:48.509Z,5.28
2017-11-18T05:35:48.265Z,5.35
2017-11-18T05:36:48.021Z,5.47
2017-11-18T05:37:48.295Z,5.41
2017-11-18T05:38:48.575Z,5.61
2017-11-18T05:39:48.582Z,5.44
2017-11-18T05:40:48.344Z,5.46
2017-11-18T05:41:48.624Z,5.46
2017-11-18T05:42:48.383Z,5.44
2017-11-18T05:43:48.647Z,5.51
2017-11-18T05:44:48.709Z,5.53
2017-11-18T05:45:48.663Z,5.44
2017-11-18T05:46:48.688Z,5.44
2017-11-18T05:47:48.758Z,5.41
2017-11-18T05:48:48.721Z,5.51
2017-11-18T05:49:48.209Z,5.46
2017-11-18T05:50:48.490Z,5.62
2017-11-18T05:51:48.754Z,5.56
2017-11-18T05:52:48.514Z,5.48
2017-11-18T05:53:48.540Z,5.43
2017-11-18T05:54:48.547Z,5.3
2017-11-18T05:55:48.553Z,5.33
2017-11-18T05:56:48.570Z,5.43
2017-11-18T05:57:48.842Z,5.57
2017-11-18T05:58:48.862Z,5.59
2017-11-18T05:59:48.868Z,5.64
2017-11-18T06:00:48.934Z,5.65
2017-11-18T06:01:48.386Z,5.62
2017-11-18T06:02:48.953Z,5.57
2017-11-18T06:03:48.925Z,5.64
2017-11-18T06:04:48.942Z,5.5
2017-11-18T06:05:48.695Z,5.54
2017-11-18T06:06:48.718Z,5.46
2017-11-18T06:07:48.725Z,5.44
2017-11-18T06:08:48.997Z,5.38
2017-11-18T06:09:49.012Z,5.39
2017-11-18T06:10:49.029Z,5.43
2017-11-18T06:11:48.782Z,5.46
2017-11-18T06:12:49.058Z,5.43
2017-11-18T06:13:48.560Z,5.39
2017-11-18T06:14:48.865Z,5.21
2017-11-18T06:15:48.888Z,5.1
2017-11-18T06:16:49.114Z,4.99
2017-11-18T06:17:49.135Z,5.08
2017-11-18T06:18:49.159Z,5
2017-11-18T06:19:49.158Z,5.02
2017-11-18T06:20:49.186Z,5.14
2017-11-18T06:21:49.184Z,5.21
2017-11-18T06:22:48.974Z,5.18
2017-11-18T06:23:48.698Z,5.3
2017-11-18T06:24:49.229Z,5.33
2017-11-18T06:25:48.988Z,5.26
2017-11-18T06:26:48.998Z,5.28
2017-11-18T06:27:49.273Z,5.23
2017-11-18T06:28:49.300Z,5.1
2017-11-18T06:29:49.304Z,5.23
2017-11-18T06:30:49.106Z,5.18
2017-11-18T06:31:49.340Z,5.12
2017-11-18T06:32:49.367Z,5.07
2017-11-18T06:33:49.363Z,4.89
2017-11-18T06:34:49.372Z,4.7
2017-11-18T06:35:49.385Z,4.67
2017-11-18T06:36:48.883Z,4.68
2017-11-18T06:37:49.158Z,4.71
2017-11-18T06:38:49.431Z,4.73
2017-11-18T06:39:49.448Z,4.75
2017-11-18T06:40:49.469Z,4.8
2017-11-18T06:41:49.210Z,4.7
2017-11-18T06:42:49.229Z,4.63
2017-11-18T06:43:49.504Z,4.74
2017-11-18T06:44:49.511Z,4.73
2017-11-18T06:45:49.597Z,4.68
2017-11-18T06:46:49.287Z,4.87
2017-11-18T06:47:49.297Z,4.92
2017-11-18T06:48:49.338Z,5.08
2017-11-18T06:49:49.585Z,5.12
2017-11-18T06:50:49.595Z,5.02
2017-11-18T06:51:49.615Z,5
2017-11-18T06:52:49.417Z,5.12
2017-11-18T06:53:49.646Z,4.92
2017-11-18T06:54:49.664Z,5
2017-11-18T06:55:49.533Z,5.04
2017-11-18T06:56:49.684Z,4.99
2017-11-18T06:57:49.702Z,4.94
2017-11-18T06:58:49.720Z,5
2017-11-18T06:59:49.731Z,4.92
2017-11-18T07:00:49.741Z,4.93
2017-11-18T07:01:49.749Z,4.94
2017-11-18T07:02:49.812Z,5.05
2017-11-18T07:03:49.785Z,5
2017-11-18T07:04:49.824Z,4.97
2017-11-18T07:05:49.552Z,4.93
2017-11-18T07:06:49.840Z,5.07
2017-11-18T07:07:49.579Z,5.05
2017-11-18T07:08:49.599Z,5.15
2017-11-18T07:09:49.608Z,5.15
2017-11-18T07:10:49.626Z,5.1
2017-11-18T07:11:49.895Z,5
2017-11-18T07:12:49.670Z,5.08
2017-11-18T07:13:49.920Z,5.23
2017-11-18T07:14:49.987Z,5.25
2017-11-18T07:15:49.694Z,5.36
2017-11-18T07:16:49.962Z,5.41
2017-11-18T07:17:49.719Z,5.44
2017-11-18T07:18:50.034Z,5.38
2017-11-18T07:19:50.058Z,5.44
2017-11-18T07:20:50.025Z,5.43
2017-11-18T07:21:49.519Z,5.35
2017-11-18T07:22:50.064Z,5.14
2017-11-18T07:23:50.059Z,5.08
2017-11-18T07:24:49.821Z,5.15
2017-11-18T07:25:49.835Z,5.14
2017-11-18T07:26:49.594Z,5.15
2017-11-18T07:27:50.133Z,5.17
2017-11-18T07:28:49.893Z,5.3
2017-11-18T07:29:49.892Z,5.36
2017-11-18T07:30:49.914Z,5.38
2017-11-18T07:31:50.213Z,5.47
2017-11-18T07:32:50.235Z,5.48
2017-11-18T07:33:50.214Z,5.54
2017-11-18T07:34:50.222Z,5.38
2017-11-18T07:35:50.248Z,5.62
2017-11-18T07:36:50.250Z,5.54
2017-11-18T07:37:50.057Z,5.66
2017-11-18T07:38:50.022Z,5.5
2017-11-18T07:39:50.296Z,5.64
2017-11-18T07:40:49.794Z,5.64
2017-11-18T07:41:50.070Z,5.65
2017-11-18T07:42:50.352Z,5.56
2017-11-18T07:43:50.096Z,5.57
2017-11-18T07:44:50.112Z,5.59
2017-11-18T07:45:50.381Z,5.48
2017-11-18T07:46:50.143Z,5.43
2017-11-18T07:47:50.419Z,5.56
2017-11-18T07:48:50.165Z,5.64
2017-11-18T07:49:50.180Z,5.66
2017-11-18T07:50:50.199Z,5.62
2017-11-18T07:51:50.348Z,5.71
2017-11-18T07:52:50.237Z,5.66
2017-11-18T07:53:50.505Z,5.72
2017-11-18T07:54:50.512Z,5.68
2017-11-18T07:55:50.270Z,5.86
2017-11-18T07:56:50.335Z,5.99
2017-11-18T07:57:50.571Z,6.07
2017-11-18T07:58:50.570Z,5.98
2017-11-18T07:59:50.590Z,5.94
2017-11-18T08:00:50.343Z,5.89
2017-11-18T08:01:50.627Z,5.8
2017-11-18T08:02:50.647Z,5.82
2017-11-18T08:03:50.390Z,5.89
2017-11-18T08:04:50.664Z,5.62
2017-11-18T08:05:50.672Z,5.59
2017-11-18T08:06:50.693Z,5.56
2017-11-18T08:07:50.705Z,5.65
2017-11-18T08:08:50.463Z,5.48
2017-11-18T08:09:50.484Z,5.56
2017-11-18T08:10:50.234Z,5.65
2017-11-18T08:11:50.553Z,5.47
2017-11-18T08:12:50.776Z,5.46
2017-11-18T08:13:50.790Z,5.47
2017-11-18T08:14:50.823Z,5.5
2017-11-18T08:15:50.608Z,5.41
2017-11-18T08:16:50.835Z,5.33
2017-11-18T08:17:50.594Z,5.29
2017-11-18T08:18:50.881Z,5.41
2017-11-18T08:19:50.619Z,5.21
2017-11-18T08:20:50.379Z,5.36
2017-11-18T08:21:50.905Z,5.41
2017-11-18T08:22:50.926Z,5.46
2017-11-18T08:23:50.942Z,5.47
2017-11-18T08:24:50.958Z,5.59
2017-11-18T08:25:50.705Z,5.54
2017-11-18T08:26:51.030Z,5.61
2017-11-18T08:27:50.735Z,5.51
2017-11-18T08:28:50.751Z,5.41
2017-11-18T08:29:51.038Z,5.51
2017-11-18T08:30:51.065Z,5.62
2017-11-18T08:31:50.800Z,5.56
2017-11-18T08:32:51.071Z,5.46
2017-11-18T08:33:51.081Z,5.51
2017-11-18T08:34:50.624Z,5.53
2017-11-18T08:35:50.855Z,5.69
2017-11-18T08:36:51.125Z,5.62
2017-11-18T08:37:50.883Z,5.64
2017-11-18T08:38:51.158Z,5.64
2017-11-18T08:39:51.180Z,5.65
2017-11-18T08:40:50.928Z,5.39
2017-11-18T08:41:51.196Z,5.51
2017-11-18T08:42:50.959Z,5.62
2017-11-18T08:43:50.968Z,5.5
2017-11-18T08:44:51.234Z,5.33
2017-11-18T08:45:51.275Z,5.59
2017-11-18T08:46:51.019Z,5.56
2017-11-18T08:47:51.022Z,5.46
2017-11-18T08:48:51.318Z,5.32
2017-11-18T08:49:51.053Z,5.44
2017-11-18T08:50:51.333Z,5.48
2017-11-18T08:51:51.345Z,5.46
2017-11-18T08:52:51.096Z,5.57
2017-11-18T08:53:51.383Z,5.73
2017-11-18T08:54:51.130Z,5.75
2017-11-18T08:55:51.404Z,5.75
2017-11-18T08:56:51.153Z,5.62
2017-11-18T08:57:51.010Z,5.68
2017-11-18T08:58:51.181Z,5.64
2017-11-18T08:59:51.202Z,5.75
2017-11-18T09:00:50.956Z,5.71
2017-11-18T09:01:51.226Z,5.97
2017-11-18T09:02:51.241Z,5.94
2017-11-18T09:03:51.527Z,6.09
2017-11-18T09:04:51.272Z,6.11
2017-11-18T09:05:51.287Z,6.17
2017-11-18T09:06:51.305Z,6.16
2017-11-18T09:07:51.588Z,6.14
2017-11-18T09:08:51.352Z,6.08
2017-11-18T09:09:51.343Z,6.26
2017-11-18T09:10:51.355Z,6.26
2017-11-18T09:11:51.632Z,6.41
2017-11-18T09:12:51.697Z,6.12
2017-11-18T09:13:51.658Z,6.12
2017-11-18T09:14:51.685Z,6.04
2017-11-18T09:15:51.697Z,6.04
2017-11-18T09:16:51.700Z,6.11
2017-11-18T09:17:51.469Z,6.16
2017-11-18T09:18:51.750Z,6.14
2017-11-18T09:19:51.488Z,6.22
2017-11-18T09:20:51.777Z,6.26
2017-11-18T09:21:51.520Z,6.28
2017-11-18T09:22:51.800Z,6.24
2017-11-18T09:23:51.550Z,6.3
2017-11-18T09:24:51.834Z,5.94
2017-11-18T09:25:51.836Z,5.94
2017-11-18T09:26:51.849Z,5.98
2017-11-18T09:27:51.923Z,6.02
2017-11-18T09:28:51.625Z,6.07
2017-11-18T09:29:51.641Z,6.22
2017-11-18T09:30:51.655Z,6.08
2017-11-18T09:31:51.932Z,6.26
2017-11-18T09:32:51.979Z,6.24
2017-11-18T09:33:51.697Z,6.42
2017-11-18T09:34:51.714Z,6.52
2017-11-18T09:35:51.986Z,6.38
2017-11-18T09:36:51.738Z,6.33
2017-11-18T09:37:51.757Z,6.19
2017-11-18T09:38:51.774Z,6.26
2017-11-18T09:39:51.527Z,6.3
2017-11-18T09:40:52.061Z,6.22
2017-11-18T09:41:51.819Z,6.07
2017-11-18T09:42:51.620Z,5.99
2017-11-18T09:43:52.100Z,6.02
2017-11-18T09:44:51.600Z,6.12
2017-11-18T09:45:51.881Z,6.07
2017-11-18T09:46:51.897Z,6.07
2017-11-18T09:47:52.164Z,6.05
2017-11-18T09:48:51.919Z,6.07
2017-11-18T09:49:52.190Z,6.22
2017-11-18T09:50:52.212Z,6.38
2017-11-18T09:51:52.222Z,6.33
2017-11-18T09:52:51.977Z,6.2
2017-11-18T09:53:51.995Z,6.11
2017-11-18T09:54:52.269Z,5.99
2017-11-18T09:55:52.280Z,5.98
2017-11-18T09:56:52.297Z,6.05
2017-11-18T09:57:52.377Z,5.94
2017-11-18T09:58:52.342Z,5.86
2017-11-18T09:59:52.337Z,5.65
2017-11-18T10:00:52.362Z,5.73
2017-11-18T10:01:52.366Z,5.71
2017-11-18T10:02:51.889Z,5.71
2017-11-18T10:03:52.422Z,5.82
2017-11-18T10:04:52.156Z,5.83
2017-11-18T10:05:52.440Z,6.01
2017-11-18T10:06:52.186Z,6.05
2017-11-18T10:07:52.196Z,5.94
2017-11-18T10:08:52.484Z,5.82
2017-11-18T10:09:52.227Z,5.76
2017-11-18T10:10:52.237Z,5.83
2017-11-18T10:11:52.262Z,5.89
2017-11-18T10:12:52.326Z,5.89
2017-11-18T10:13:52.573Z,5.89
2017-11-18T10:14:52.560Z,5.82
2017-11-18T10:15:52.601Z,5.68
2017-11-18T10:16:52.589Z,5.76
2017-11-18T10:17:52.604Z,5.68
2017-11-18T10:18:52.621Z,5.64
2017-11-18T10:19:52.653Z,5.66
2017-11-18T10:20:52.661Z,5.59
2017-11-18T10:21:52.700Z,5.71
2017-11-18T10:22:52.692Z,5.73
2017-11-18T10:23:52.713Z,5.62
2017-11-18T10:24:52.703Z,5.66
2017-11-18T10:25:52.717Z,5.65
2017-11-18T10:26:52.754Z,5.57
2017-11-18T10:27:52.744Z,5.64
2017-11-18T10:28:52.770Z,5.64
2017-11-18T10:29:52.524Z,5.51
2017-11-18T10:30:52.792Z,5.64
2017-11-18T10:31:52.860Z,5.64
2017-11-18T10:32:52.311Z,5.61
2017-11-18T10:33:52.830Z,5.51
2017-11-18T10:34:52.866Z,5.59
2017-11-18T10:35:52.344Z,5.59
2017-11-18T10:36:52.917Z,5.61
2017-11-18T10:37:52.638Z,5.71
2017-11-18T10:38:52.899Z,5.84
2017-11-18T10:39:52.929Z,5.72
2017-11-18T10:40:52.680Z,5.86
2017-11-18T10:41:52.958Z,5.87
2017-11-18T10:42:52.989Z,5.76
2017-11-18T10:43:52.981Z,5.76
2017-11-18T10:44:53.016Z,5.89
2017-11-18T10:45:53.011Z,5.98
2017-11-18T10:46:52.817Z,5.86
2017-11-18T10:47:52.775Z,5.69
2017-11-18T10:48:53.050Z,5.61
2017-11-18T10:49:53.066Z,5.76
2017-11-18T10:50:52.831Z,5.66
2017-11-18T10:51:52.860Z,5.65
2017-11-18T10:52:53.114Z,5.75
2017-11-18T10:53:53.142Z,5.76
2017-11-18T10:54:52.877Z,5.75
2017-11-18T10:55:53.145Z,5.94
2017-11-18T10:56:53.166Z,5.72
2017-11-18T10:57:53.175Z,5.68
2017-11-18T10:58:52.942Z,5.73
2017-11-18T10:59:53.207Z,5.73
2017-11-18T11:00:52.968Z,5.69
2017-11-18T11:01:52.771Z,5.72
2017-11-18T11:02:52.734Z,5.83
2017-11-18T11:03:53.270Z,5.86
2017-11-18T11:04:53.286Z,5.89
2017-11-18T11:05:53.035Z,5.99
2017-11-18T11:06:53.053Z,6.08
2017-11-18T11:07:53.336Z,6.08
2017-11-18T11:08:53.348Z,6.35
2017-11-18T11:09:53.353Z,6.26
2017-11-18T11:10:53.387Z,6.19
2017-11-18T11:11:53.404Z,6.26
2017-11-18T11:12:53.141Z,6.28
2017-11-18T11:14:18.851Z,6.36
2017-11-18T11:15:19.110Z,6.57
2017-11-18T11:15:53.448Z,6.52
2017-11-18T11:16:53.468Z,6.59
2017-11-18T11:17:53.224Z,6.52
2017-11-18T11:18:52.971Z,6.41
2017-11-18T11:19:53.757Z,6.22
2017-11-18T11:20:53.521Z,6.38
2017-11-18T11:22:12.480Z,6.36
2017-11-18T11:22:53.035Z,6.45
2017-11-18T11:23:53.312Z,6.56
2017-11-18T11:24:53.585Z,6.59
2017-11-18T11:25:53.596Z,6.48
2017-11-18T11:26:53.354Z,6.28
2017-11-18T11:27:53.636Z,6.24
2017-11-18T11:28:53.638Z,6.33
2017-11-18T11:29:53.655Z,6.42
2017-11-18T11:30:53.412Z,6.51
2017-11-18T11:31:53.696Z,6.46
2017-11-18T11:32:53.709Z,6.36
2017-11-18T11:33:53.461Z,6.28
2017-11-18T11:34:53.882Z,6.16
2017-11-18T11:35:53.488Z,6.22
2017-11-18T11:36:53.763Z,6.26
2017-11-18T11:37:53.865Z,6.28
2017-11-18T11:38:53.829Z,6.26
2017-11-18T11:39:53.822Z,6.17
2017-11-18T11:40:53.825Z,6.04
2017-11-18T11:41:53.613Z,6.31
2017-11-18T11:42:53.599Z,6.28
2017-11-18T11:43:53.354Z,6.45
2017-11-18T11:44:53.625Z,6.38
2017-11-18T11:45:53.642Z,6.56
2017-11-18T11:46:53.652Z,6.67
2017-11-18T11:47:53.673Z,6.46
2017-11-18T11:48:53.704Z,6.33
2017-11-18T11:49:54.006Z,6.26
2017-11-18T11:50:53.721Z,6.12
2017-11-18T11:51:53.732Z,6.09
2017-11-18T11:52:54.013Z,6.12
2017-11-18T11:53:54.027Z,6.24
2017-11-18T11:54:54.041Z,6.26
2017-11-18T11:55:54.055Z,6.24
2017-11-18T11:56:53.814Z,6.26
2017-11-18T11:57:53.829Z,6.08
2017-11-18T11:58:53.837Z,6.31
2017-11-18T11:59:53.855Z,6.31
2017-11-18T12:00:54.147Z,6.44
2017-11-18T12:01:54.182Z,6.54
2017-11-18T12:02:54.175Z,6.54
2017-11-18T12:03:53.927Z,6.74
2017-11-18T12:04:53.985Z,6.52
2017-11-18T12:05:53.689Z,6.45
2017-11-18T12:06:54.225Z,6.41
2017-11-18T12:07:53.977Z,6.48
2017-11-18T12:08:53.996Z,6.59
2017-11-18T12:09:54.335Z,6.54
2017-11-18T12:10:54.284Z,6.59
2017-11-18T12:11:54.326Z,6.77
2017-11-18T12:12:54.057Z,6.74
2017-11-18T12:13:54.330Z,6.72
2017-11-18T12:14:54.083Z,6.74
2017-11-18T12:15:54.373Z,6.87
2017-11-18T12:16:54.372Z,6.87
2017-11-18T12:17:54.397Z,6.93
2017-11-18T12:18:54.409Z,7.07
2017-11-18T12:19:54.228Z,6.93
2017-11-18T12:20:54.638Z,6.88
2017-11-18T12:21:54.196Z,6.88
2017-11-18T12:22:54.223Z,6.84
2017-11-18T12:23:54.480Z,6.88
2017-11-18T12:24:54.241Z,6.95
2017-11-18T12:25:54.265Z,6.95
2017-11-18T12:26:54.277Z,6.82
2017-11-18T12:27:54.551Z,6.85
2017-11-18T12:28:54.566Z,6.88
2017-11-18T12:29:54.321Z,6.87
2017-11-18T12:30:54.599Z,6.87
2017-11-18T12:31:54.609Z,6.96
2017-11-18T12:32:54.372Z,7.1
2017-11-18T12:33:54.424Z,7.1
2017-11-18T12:34:54.555Z,6.99
2017-11-18T12:35:54.429Z,6.87
2017-11-18T12:36:54.684Z,6.88
2017-11-18T12:37:54.706Z,6.95
2017-11-18T12:38:54.471Z,7.06
2017-11-18T12:39:54.473Z,7.13
2017-11-18T12:40:54.235Z,7.32
2017-11-18T12:41:54.529Z,7.32
2017-11-18T12:42:54.527Z,7.39
2017-11-18T12:43:54.808Z,7.31
2017-11-18T12:44:54.581Z,7.1
2017-11-18T12:45:54.578Z,7.1
2017-11-18T12:46:54.593Z,6.97
2017-11-18T12:47:54.865Z,7.11
2017-11-18T12:48:54.881Z,7.07
2017-11-18T12:49:54.962Z,7.25
2017-11-18T12:50:54.913Z,7.13
2017-11-18T12:51:54.672Z,7.05
2017-11-18T12:52:54.687Z,7.11
2017-11-18T12:53:54.963Z,7.23
2017-11-18T12:54:54.979Z,7.25
2017-11-18T12:55:54.737Z,7.39
2017-11-18T12:56:54.753Z,7.42
2017-11-18T12:57:54.767Z,7.47
2017-11-18T12:58:55.048Z,7.36
2017-11-18T12:59:54.802Z,7.4
2017-11-18T13:00:54.816Z,7.39
2017-11-18T13:01:54.830Z,7.48
2017-11-18T13:02:54.849Z,7.39
2017-11-18T13:03:55.130Z,7.39
2017-11-18T13:04:54.943Z,7.47
2017-11-18T13:05:54.901Z,7.53
2017-11-18T13:06:54.926Z,7.67
2017-11-18T13:07:54.935Z,7.76
2017-11-18T13:08:55.200Z,7.72
2017-11-18T13:09:54.963Z,7.69
2017-11-18T13:10:55.240Z,7.48
2017-11-18T13:11:55.000Z,7.51
2017-11-18T13:12:55.268Z,7.7
2017-11-18T13:13:55.292Z,7.85
2017-11-18T13:14:55.331Z,7.67
2017-11-18T13:15:55.061Z,7.76
2017-11-18T13:16:55.071Z,7.77
2017-11-18T13:17:55.362Z,7.73
2017-11-18T13:18:55.361Z,7.67
2017-11-18T13:19:55.430Z,7.5
2017-11-18T13:20:55.138Z,7.53